Time;durP1;ratioP1;P1;durP2;ratioP2;P2;SDS_P1;SDS_P2;PMS_P1;PMS_P2;Temp;Humidity;BMP_temperature;BMP_pressure;BME280_temperature;BME280_humidity;BME280_pressure;Samples;Min_cycle;Max_cycle;Signal;HPM_P1;HPM_P2
2023/06/13 00:01:04;;;;;;;0.00;0.00;;;20.30;51.00;;;;;;4972846;28;20057;-65
2023/06/13 00:03:30;;;;;;;0.05;0.05;;;20.30;51.00;;;;;;4973783;28;20042;-65
2023/06/13 00:05:56;;;;;;;0.00;0.00;;;20.30;51.10;;;;;;4992694;28;20586;-65
2023/06/13 00:08:24;;;;;;;0.00;0.00;;;20.30;51.00;;;;;;4992668;28;20042;-65
2023/06/13 00:10:50;;;;;;;0.00;0.00;;;20.30;50.80;;;;;;4992492;28;20046;-65
2023/06/13 00:13:17;;;;;;;0.00;0.00;;;20.30;50.50;;;;;;4992498;28;20057;-65
2023/06/13 00:15:56;;;;;;;0.00;0.00;;;20.30;50.70;;;;;;4989418;28;20046;-65
2023/06/13 00:18:22;;;;;;;0.00;0.00;;;20.30;50.60;;;;;;4958677;28;20046;-65
2023/06/13 00:20:49;;;;;;;0.00;0.00;;;20.20;51.00;;;;;;4992989;28;20058;-65
2023/06/13 00:23:16;;;;;;;0.00;0.00;;;20.20;51.00;;;;;;4974837;28;20050;-65
2023/06/13 00:25:42;;;;;;;0.10;0.10;;;20.20;50.80;;;;;;4974532;28;20496;-65
2023/06/13 00:28:07;;;;;;;0.00;0.00;;;20.10;50.40;;;;;;4972795;28;20457;-65
2023/06/13 00:30:33;;;;;;;0.00;0.00;;;20.10;49.90;;;;;;4972806;28;20079;-65
2023/06/13 00:32:59;;;;;;;0.00;0.00;;;20.10;49.90;;;;;;4967124;28;20061;-65
2023/06/13 00:35:25;;;;;;;0.00;0.00;;;20.10;50.30;;;;;;4990253;28;20101;-65
2023/06/13 00:37:54;;;;;;;0.00;0.00;;;20.10;50.10;;;;;;4958696;28;20046;-65
2023/06/13 00:40:20;;;;;;;0.00;0.00;;;20.10;50.30;;;;;;4992042;28;20054;-65
2023/06/13 00:42:46;;;;;;;0.00;0.00;;;20.00;50.50;;;;;;4991333;28;20042;-65
2023/06/13 00:45:20;;;;;;;0.00;0.00;;;20.10;50.90;;;;;;4988937;28;20837;-65
2023/06/13 00:47:54;;;;;;;0.00;0.00;;;20.00;50.90;;;;;;4991606;28;20050;-65
2023/06/13 00:50:26;;;;;;;0.00;0.00;;;20.00;51.10;;;;;;4991975;28;20122;-65
2023/06/13 00:52:52;;;;;;;0.00;0.00;;;20.00;50.90;;;;;;4983468;28;20086;-65
2023/06/13 00:55:18;;;;;;;0.00;0.00;;;20.00;50.90;;;;;;4978298;28;20047;-65
2023/06/13 00:57:44;;;;;;;0.00;0.00;;;19.90;50.70;;;;;;4972216;28;20439;-65
2023/06/13 01:00:10;;;;;;;0.00;0.00;;;19.90;50.80;;;;;;4977693;28;20133;-65
2023/06/13 01:02:36;;;;;;;0.00;0.00;;;19.80;50.90;;;;;;4991675;28;20454;-65
2023/06/13 01:05:02;;;;;;;0.10;0.10;;;19.70;51.10;;;;;;4981358;28;20050;-65
2023/06/13 01:07:32;;;;;;;0.00;0.00;;;19.70;51.10;;;;;;4971895;28;20122;-65
2023/06/13 01:09:58;;;;;;;0.00;0.00;;;19.70;51.20;;;;;;4972632;28;20042;-66
2023/06/13 01:12:35;;;;;;;0.00;0.00;;;19.60;51.10;;;;;;4962068;28;20046;-65
2023/06/13 01:15:08;;;;;;;0.00;0.00;;;19.60;51.30;;;;;;4962896;28;20522;-66
2023/06/13 01:17:40;;;;;;;0.00;0.00;;;19.50;51.80;;;;;;4991207;28;20116;-65
2023/06/13 01:20:10;;;;;;;0.00;0.00;;;19.60;51.90;;;;;;4991099;28;20397;-65
2023/06/13 01:22:52;;;;;;;0.00;0.00;;;19.50;52.40;;;;;;4991212;28;20045;-65
2023/06/13 01:25:52;;;;;;;0.00;0.00;;;19.50;52.10;;;;;;4960544;28;20062;-65
2023/06/13 01:28:22;;;;;;;0.00;0.00;;;19.50;52.70;;;;;;4970809;28;20049;-65
2023/06/13 01:30:48;;;;;;;0.00;0.00;;;19.40;53.40;;;;;;4971289;28;20079;-65
2023/06/13 01:33:16;;;;;;;0.00;0.00;;;19.30;53.40;;;;;;4955000;28;20047;-65
2023/06/13 01:35:42;;;;;;;0.00;0.00;;;19.30;53.30;;;;;;4975431;28;20089;-65
2023/06/13 01:38:08;;;;;;;0.00;0.00;;;19.20;53.20;;;;;;4971612;28;20086;-65
2023/06/13 01:40:34;;;;;;;0.00;0.00;;;19.20;53.10;;;;;;4938139;28;20055;-65
2023/06/13 01:42:59;;;;;;;0.00;0.00;;;19.20;53.10;;;;;;4972329;28;20594;-65
2023/06/13 01:45:25;;;;;;;0.00;0.00;;;19.20;52.70;;;;;;4986338;28;20042;-65
2023/06/13 01:48:03;;;;;;;0.00;0.00;;;19.20;52.60;;;;;;4990712;28;20054;-65
2023/06/13 01:50:51;;;;;;;0.00;0.00;;;19.10;52.60;;;;;;4990736;28;20179;-65
2023/06/13 01:53:54;;;;;;;0.00;0.00;;;19.10;54.10;;;;;;4971093;28;20088;-65
2023/06/13 01:56:22;;;;;;;0.00;0.00;;;19.00;54.20;;;;;;4971445;28;20094;-65
2023/06/13 01:59:00;;;;;;;0.00;0.00;;;19.00;54.40;;;;;;4971274;28;20094;-65
2023/06/13 02:01:27;;;;;;;0.00;0.00;;;19.00;53.80;;;;;;4957989;28;20049;-65
2023/06/13 02:03:53;;;;;;;0.00;0.00;;;19.00;54.20;;;;;;4990042;28;20802;-65
2023/06/13 02:06:19;;;;;;;0.00;0.00;;;18.90;54.60;;;;;;4973069;28;20054;-65
2023/06/13 02:08:45;;;;;;;0.00;0.00;;;18.90;55.10;;;;;;4973215;28;20035;-65
2023/06/13 02:11:11;;;;;;;0.00;0.00;;;18.90;55.00;;;;;;4972351;28;20150;-64
2023/06/13 02:13:37;;;;;;;0.00;0.00;;;18.80;54.70;;;;;;4990400;28;20110;-65
2023/06/13 02:16:03;;;;;;;0.00;0.00;;;18.80;54.80;;;;;;4990074;28;20046;-65
2023/06/13 02:18:30;;;;;;;0.00;0.00;;;18.80;54.80;;;;;;4976532;28;20106;-65
2023/06/13 02:20:56;;;;;;;0.00;0.00;;;18.70;55.20;;;;;;4970858;28;20074;-65
2023/06/13 02:23:23;;;;;;;0.00;0.00;;;18.70;54.50;;;;;;4970376;28;20086;-65
2023/06/13 02:25:49;;;;;;;0.00;0.00;;;18.70;55.00;;;;;;4970703;28;20122;-65
2023/06/13 02:28:14;;;;;;;1.27;0.45;;;18.60;55.00;;;;;;4971536;28;20046;-65
2023/06/13 02:30:40;;;;;;;0.00;0.00;;;18.60;55.10;;;;;;4971316;28;20065;-64
2023/06/13 02:33:08;;;;;;;0.00;0.00;;;18.50;55.30;;;;;;4987536;28;20042;-65
2023/06/13 02:35:33;;;;;;;0.00;0.00;;;18.50;55.10;;;;;;4990115;28;20050;-65
2023/06/13 02:37:59;;;;;;;0.00;0.00;;;18.50;55.40;;;;;;4964441;28;20514;-65
2023/06/13 02:40:25;;;;;;;0.00;0.00;;;18.50;55.00;;;;;;4953076;28;20526;-64
2023/06/13 02:42:54;;;;;;;0.05;0.05;;;18.50;55.00;;;;;;4971082;28;20122;-65
2023/06/13 02:45:20;;;;;;;0.00;0.00;;;18.50;55.50;;;;;;4970739;28;20046;-65
2023/06/13 02:47:45;;;;;;;0.00;0.00;;;18.40;54.80;;;;;;4970651;28;20031;-64
2023/06/13 02:50:11;;;;;;;0.00;0.00;;;18.40;55.20;;;;;;4970778;28;20047;-65
2023/06/13 02:52:37;;;;;;;0.00;0.00;;;18.40;55.30;;;;;;4970839;28;20046;-64
2023/06/13 02:55:07;;;;;;;0.00;0.00;;;18.40;55.20;;;;;;4970847;28;20063;-64
2023/06/13 02:57:33;;;;;;;0.00;0.00;;;18.40;55.10;;;;;;4973584;28;20104;-64
2023/06/13 02:59:59;;;;;;;0.00;0.00;;;18.30;55.10;;;;;;4972774;28;20046;-65
2023/06/13 03:02:26;;;;;;;0.00;0.00;;;18.30;54.70;;;;;;4989871;28;20093;-65
2023/06/13 03:04:52;;;;;;;0.00;0.00;;;18.30;54.60;;;;;;4989038;28;20046;-65
2023/06/13 03:07:19;;;;;;;0.00;0.00;;;18.30;54.60;;;;;;4988929;28;20050;-65
2023/06/13 03:09:44;;;;;;;0.20;0.20;;;18.30;54.20;;;;;;4990028;28;20043;-64
2023/06/13 03:12:13;;;;;;;0.00;0.00;;;18.20;55.20;;;;;;4981704;28;20050;-64
2023/06/13 03:14:38;;;;;;;0.00;0.00;;;18.20;54.90;;;;;;4985619;28;20467;-64
2023/06/13 03:17:04;;;;;;;0.00;0.00;;;18.20;54.70;;;;;;4953094;28;20059;-64
2023/06/13 03:19:30;;;;;;;0.08;0.08;;;18.10;54.90;;;;;;4987471;28;20046;-65
2023/06/13 03:21:58;;;;;;;0.00;0.00;;;18.10;55.00;;;;;;4989527;28;20117;-65
2023/06/13 03:24:24;;;;;;;0.00;0.00;;;18.10;55.10;;;;;;4980883;28;20043;-65
2023/06/13 03:26:49;;;;;;;0.00;0.00;;;18.10;54.90;;;;;;4971386;28;20117;-64
2023/06/13 03:29:15;;;;;;;0.00;0.00;;;18.10;55.20;;;;;;4969976;28;20039;-65
2023/06/13 03:31:41;;;;;;;0.00;0.00;;;18.10;55.80;;;;;;4969880;28;20042;-64
2023/06/13 03:34:06;;;;;;;0.00;0.00;;;18.00;56.00;;;;;;4952953;28;20039;-65
2023/06/13 03:36:37;;;;;;;0.00;0.00;;;18.00;56.60;;;;;;4962148;28;20522;-65
2023/06/13 03:39:03;;;;;;;0.00;0.00;;;18.00;56.00;;;;;;4976036;28;20047;-64
2023/06/13 03:41:28;;;;;;;0.00;0.00;;;18.00;55.70;;;;;;4970042;28;20053;-64
2023/06/13 03:43:54;;;;;;;0.10;0.10;;;17.90;56.00;;;;;;4952538;28;20134;-64
2023/06/13 03:46:20;;;;;;;0.00;0.00;;;17.90;55.70;;;;;;4969897;28;20051;-65
2023/06/13 03:48:46;;;;;;;0.00;0.00;;;17.90;56.20;;;;;;4970033;28;20050;-64
2023/06/13 03:51:11;;;;;;;0.00;0.00;;;17.90;56.10;;;;;;4971142;28;20125;-65
2023/06/13 03:53:38;;;;;;;0.00;0.00;;;17.80;56.40;;;;;;4983849;28;20125;-64
2023/06/13 03:56:06;;;;;;;0.00;0.00;;;17.80;56.20;;;;;;4975569;28;20062;-64
2023/06/13 03:58:32;;;;;;;0.00;0.00;;;17.80;56.00;;;;;;4974750;28;20125;-65
2023/06/13 04:00:58;;;;;;;0.00;0.00;;;17.80;56.20;;;;;;4986679;28;20043;-65
2023/06/13 04:03:23;;;;;;;0.00;0.00;;;17.70;56.20;;;;;;4973227;28;20049;-64
2023/06/13 04:05:49;;;;;;;0.00;0.00;;;17.70;56.60;;;;;;4955726;28;20046;-65
2023/06/13 04:08:15;;;;;;;0.00;0.00;;;17.70;56.50;;;;;;4974233;28;20039;-65
2023/06/13 04:10:40;;;;;;;0.00;0.00;;;17.70;56.80;;;;;;4956077;28;20047;-65
2023/06/13 04:13:06;;;;;;;0.00;0.00;;;17.70;56.70;;;;;;4973253;28;20134;-64
2023/06/13 04:15:31;;;;;;;0.00;0.00;;;17.70;56.70;;;;;;4972867;28;20043;-64
2023/06/13 04:17:57;;;;;;;0.00;0.00;;;17.70;57.30;;;;;;4973904;28;20043;-65
2023/06/13 04:20:23;;;;;;;0.00;0.00;;;17.70;57.70;;;;;;4949111;28;20133;-64
2023/06/13 04:22:49;;;;;;;0.00;0.00;;;17.70;57.10;;;;;;4992807;28;20050;-65
2023/06/13 04:25:15;;;;;;;0.00;0.00;;;17.70;57.40;;;;;;4958270;28;20065;-64
2023/06/13 04:27:43;;;;;;;0.22;0.22;;;17.70;58.00;;;;;;4973883;28;20051;-64
2023/06/13 04:30:09;;;;;;;0.00;0.00;;;17.70;57.50;;;;;;4973073;28;20145;-64
2023/06/13 04:32:37;;;;;;;0.00;0.00;;;17.70;57.10;;;;;;4972945;28;20046;-64
2023/06/13 04:35:03;;;;;;;0.00;0.00;;;17.80;57.60;;;;;;4982306;28;20077;-64
2023/06/13 04:37:30;;;;;;;0.00;0.00;;;17.80;57.40;;;;;;4991887;28;20046;-64
2023/06/13 04:39:56;;;;;;;0.00;0.00;;;17.80;57.10;;;;;;4991879;28;20046;-64
2023/06/13 04:42:29;;;;;;;0.00;0.00;;;17.80;57.20;;;;;;4990590;28;20101;-64
2023/06/13 04:44:58;;;;;;;0.00;0.00;;;17.80;57.10;;;;;;4992128;28;20124;-65
2023/06/13 04:47:24;;;;;;;0.15;0.15;;;17.80;57.20;;;;;;4970571;28;20077;-66
2023/06/13 04:49:59;;;;;;;0.00;0.00;;;17.90;57.60;;;;;;4957498;28;20065;-65
2023/06/13 04:52:32;;;;;;;0.00;0.00;;;18.00;57.40;;;;;;4972752;28;20042;-65
2023/06/13 04:55:02;;;;;;;0.00;0.00;;;18.00;56.80;;;;;;4991869;28;20055;-65
2023/06/13 04:57:31;;;;;;;0.00;0.00;;;18.10;56.80;;;;;;4990540;28;20610;-65
2023/06/13 04:59:58;;;;;;;0.00;0.00;;;18.20;56.40;;;;;;4991037;28;20038;-65
2023/06/13 05:02:25;;;;;;;0.00;0.00;;;18.30;56.40;;;;;;4984342;28;20173;-65
2023/06/13 05:04:52;;;;;;;0.00;0.00;;;18.30;56.60;;;;;;4980838;28;20047;-65
2023/06/13 05:07:19;;;;;;;0.00;0.00;;;18.40;56.30;;;;;;4990253;28;20173;-66
2023/06/13 05:09:45;;;;;;;0.10;0.10;;;18.40;56.20;;;;;;4967699;28;20078;-66
2023/06/13 05:12:11;;;;;;;0.00;0.00;;;18.50;56.10;;;;;;4972453;28;20046;-66
2023/06/13 05:14:40;;;;;;;0.17;0.17;;;18.50;55.80;;;;;;4972313;28;20039;-66
2023/06/13 05:17:09;;;;;;;0.00;0.00;;;18.60;56.00;;;;;;4970660;28;20408;-66
2023/06/13 05:19:35;;;;;;;0.00;0.00;;;18.60;55.90;;;;;;4989719;28;20554;-66
2023/06/13 05:22:05;;;;;;;0.00;0.00;;;18.70;56.00;;;;;;4957996;28;20129;-66
2023/06/13 05:24:32;;;;;;;0.00;0.00;;;18.80;55.90;;;;;;4990538;28;20047;-67
2023/06/13 05:26:58;;;;;;;0.00;0.00;;;18.80;55.70;;;;;;4978730;28;20117;-66
2023/06/13 05:29:24;;;;;;;0.20;0.17;;;18.80;55.70;;;;;;4986348;28;20034;-66
2023/06/13 05:31:50;;;;;;;0.00;0.00;;;18.90;55.30;;;;;;4972509;28;20049;-66
2023/06/13 05:34:16;;;;;;;0.03;0.03;;;18.90;55.40;;;;;;4966506;28;20042;-65
2023/06/13 05:36:41;;;;;;;0.00;0.00;;;18.90;55.50;;;;;;4971658;28;20182;-66
2023/06/13 05:39:08;;;;;;;0.00;0.00;;;19.00;55.60;;;;;;4966600;28;20051;-65
2023/06/13 05:41:34;;;;;;;0.00;0.00;;;19.00;55.40;;;;;;4956806;28;20050;-65
2023/06/13 05:44:00;;;;;;;0.00;0.00;;;19.00;55.30;;;;;;4984734;28;20049;-65
2023/06/13 05:46:26;;;;;;;0.00;0.00;;;19.00;55.20;;;;;;4984432;28;20465;-65
2023/06/13 05:48:52;;;;;;;0.05;0.05;;;19.00;55.40;;;;;;4971557;28;20042;-64
2023/06/13 05:51:17;;;;;;;0.00;0.00;;;19.00;55.40;;;;;;4971051;28;20045;-65
2023/06/13 05:53:43;;;;;;;0.00;0.00;;;19.00;55.20;;;;;;4972308;28;20051;-64
2023/06/13 05:56:09;;;;;;;0.00;0.00;;;19.00;55.50;;;;;;4985076;28;20057;-64
2023/06/13 05:58:34;;;;;;;6.55;0.65;;;19.00;55.30;;;;;;4981990;28;20161;-65
2023/06/13 06:01:01;;;;;;;0.10;0.10;;;19.10;55.00;;;;;;4975790;28;20086;-65
2023/06/13 06:03:28;;;;;;;0.10;0.10;;;19.10;54.80;;;;;;4979246;28;20054;-66
2023/06/13 06:05:53;;;;;;;0.10;0.10;;;19.10;54.80;;;;;;4990523;28;20125;-65
2023/06/13 06:08:19;;;;;;;0.10;0.10;;;19.10;54.70;;;;;;4979897;28;20056;-64
2023/06/13 06:10:45;;;;;;;0.10;0.10;;;19.10;54.70;;;;;;4983703;28;20038;-66
2023/06/13 06:13:10;;;;;;;0.00;0.00;;;19.40;63.00;;;;;;4988044;28;20042;-64
2023/06/13 06:15:36;;;;;;;0.00;0.00;;;19.60;63.40;;;;;;4981867;28;20046;-63
2023/06/13 06:18:01;;;;;;;0.82;0.57;;;19.80;56.90;;;;;;4983598;28;20046;-64
2023/06/13 06:20:27;;;;;;;0.95;0.38;;;20.00;57.20;;;;;;4990351;28;20053;-67
2023/06/13 06:22:52;;;;;;;0.00;0.00;;;20.10;56.00;;;;;;4989711;28;20046;-65
2023/06/13 06:25:21;;;;;;;0.00;0.00;;;20.00;53.60;;;;;;4990043;28;20132;-64
2023/06/13 06:27:49;;;;;;;0.00;0.00;;;20.00;53.60;;;;;;4989638;28;20454;-65
2023/06/13 06:30:15;;;;;;;0.00;0.00;;;19.90;53.50;;;;;;4990138;28;20042;-65
2023/06/13 06:32:41;;;;;;;0.13;0.13;;;19.90;53.50;;;;;;4992693;28;20048;-65
2023/06/13 06:35:07;;;;;;;0.00;0.00;;;19.80;53.50;;;;;;5009248;28;20052;-65
2023/06/13 06:37:33;;;;;;;0.00;0.00;;;19.80;53.30;;;;;;4996213;28;20132;-65
2023/06/13 06:39:59;;;;;;;0.00;0.00;;;19.80;53.00;;;;;;4989502;28;20471;-65
2023/06/13 06:42:25;;;;;;;0.00;0.00;;;19.80;53.00;;;;;;5004224;28;20050;-64
2023/06/13 06:44:51;;;;;;;0.00;0.00;;;19.80;52.80;;;;;;5007266;28;20410;-65
2023/06/13 06:47:17;;;;;;;0.03;0.03;;;19.80;52.70;;;;;;4981914;28;20142;-65
2023/06/13 06:49:42;;;;;;;0.00;0.00;;;19.80;53.00;;;;;;4959204;28;20415;-65
2023/06/13 06:52:08;;;;;;;0.00;0.00;;;19.80;51.90;;;;;;4984987;28;20038;-65
2023/06/13 06:54:34;;;;;;;0.00;0.00;;;19.90;51.60;;;;;;4982836;28;20090;-65
2023/06/13 06:57:04;;;;;;;0.00;0.00;;;19.90;51.10;;;;;;4974622;28;20058;-65
2023/06/13 06:59:32;;;;;;;0.22;0.22;;;20.00;51.50;;;;;;4982369;28;20085;-65
2023/06/13 07:01:58;;;;;;;0.00;0.00;;;20.00;51.60;;;;;;4953066;28;20051;-65
2023/06/13 07:04:23;;;;;;;0.10;0.10;;;20.00;50.40;;;;;;4962605;28;20043;-65
2023/06/13 07:06:49;;;;;;;0.00;0.00;;;20.10;50.80;;;;;;4983713;28;20427;-65
2023/06/13 07:09:15;;;;;;;0.70;0.70;;;20.20;50.20;;;;;;4986187;28;21711;-65
2023/06/13 07:11:41;;;;;;;0.00;0.00;;;20.30;50.30;;;;;;4981287;28;20035;-65
2023/06/13 07:14:07;;;;;;;0.00;0.00;;;20.30;50.10;;;;;;4975407;28;20047;-64
2023/06/13 07:16:33;;;;;;;0.10;0.10;;;20.40;49.60;;;;;;4989262;28;20049;-65
2023/06/13 07:18:58;;;;;;;0.00;0.00;;;20.50;49.70;;;;;;4985478;28;20058;-65
2023/06/13 07:21:24;;;;;;;0.00;0.00;;;20.50;49.10;;;;;;4986034;28;20043;-64
2023/06/13 07:23:50;;;;;;;0.35;0.28;;;20.60;49.40;;;;;;4975313;28;20047;-65
2023/06/13 07:26:15;;;;;;;0.00;0.00;;;20.60;49.20;;;;;;4957204;28;20053;-65
2023/06/13 07:28:41;;;;;;;0.05;0.05;;;20.80;48.40;;;;;;4976358;28;20043;-65
2023/06/13 07:31:07;;;;;;;0.00;0.00;;;20.80;48.30;;;;;;4982983;28;20066;-65
2023/06/13 07:33:32;;;;;;;0.00;0.00;;;20.90;48.60;;;;;;4979556;28;20049;-64
2023/06/13 07:35:58;;;;;;;0.00;0.00;;;21.00;48.40;;;;;;4989656;28;20066;-65
2023/06/13 07:38:25;;;;;;;0.10;0.10;;;21.10;49.00;;;;;;4974724;28;20050;-64
2023/06/13 07:40:51;;;;;;;0.03;0.03;;;21.10;49.20;;;;;;4979399;28;20054;-65
2023/06/13 07:43:17;;;;;;;0.00;0.00;;;21.10;47.50;;;;;;4953934;28;20043;-65
2023/06/13 07:45:42;;;;;;;0.00;0.00;;;21.20;47.90;;;;;;4980938;28;20101;-65
2023/06/13 07:48:08;;;;;;;0.00;0.00;;;21.30;47.80;;;;;;4958232;28;20034;-65
2023/06/13 07:50:34;;;;;;;0.00;0.00;;;21.40;48.00;;;;;;4983516;28;20468;-64
2023/06/13 07:53:00;;;;;;;0.00;0.00;;;21.50;48.20;;;;;;4991722;28;20488;-65
2023/06/13 07:55:26;;;;;;;0.00;0.00;;;21.60;48.00;;;;;;4983995;28;20053;-64
2023/06/13 07:57:51;;;;;;;0.00;0.00;;;21.60;47.90;;;;;;4978541;28;20058;-64
2023/06/13 08:00:17;;;;;;;0.10;0.10;;;21.70;47.90;;;;;;4983322;28;20046;-65
2023/06/13 08:02:46;;;;;;;0.00;0.00;;;21.70;47.30;;;;;;4977751;28;20067;-65
2023/06/13 08:05:14;;;;;;;0.00;0.00;;;21.80;46.80;;;;;;4977315;28;20126;-64
2023/06/13 08:07:40;;;;;;;0.00;0.00;;;21.90;46.80;;;;;;4968220;28;20053;-65
2023/06/13 08:10:06;;;;;;;0.10;0.10;;;22.00;47.10;;;;;;4977136;28;20038;-64
2023/06/13 08:12:32;;;;;;;0.00;0.00;;;22.00;47.20;;;;;;4975744;28;20491;-64
2023/06/13 08:14:57;;;;;;;0.10;0.10;;;22.10;46.90;;;;;;4984387;28;20049;-65
2023/06/13 08:17:26;;;;;;;0.00;0.00;;;22.10;46.60;;;;;;4987485;28;20173;-64
2023/06/13 08:19:52;;;;;;;0.00;0.00;;;22.10;45.60;;;;;;4984889;28;20038;-65
2023/06/13 08:22:18;;;;;;;0.00;0.00;;;22.10;44.30;;;;;;4980670;28;20105;-65
2023/06/13 08:24:45;;;;;;;0.00;0.00;;;22.20;44.80;;;;;;4992287;28;20461;-65
2023/06/13 08:27:11;;;;;;;0.00;0.00;;;22.30;44.90;;;;;;4997347;28;20046;-65
2023/06/13 08:29:36;;;;;;;0.00;0.00;;;22.30;44.10;;;;;;4992085;28;20100;-65
2023/06/13 08:32:03;;;;;;;0.00;0.00;;;22.50;43.50;;;;;;4974252;28;20113;-65
2023/06/13 08:34:29;;;;;;;0.00;0.00;;;22.50;44.10;;;;;;4966513;28;20034;-64
2023/06/13 08:36:54;;;;;;;0.00;0.00;;;22.60;42.70;;;;;;4974066;28;20411;-65
2023/06/13 08:39:23;;;;;;;0.10;0.10;;;22.60;43.30;;;;;;4982924;28;20597;-65
2023/06/13 08:41:49;;;;;;;0.00;0.00;;;22.70;43.10;;;;;;4983343;28;20042;-65
2023/06/13 08:44:17;;;;;;;0.00;0.00;;;22.70;41.30;;;;;;4981887;28;20499;-65
2023/06/13 08:46:42;;;;;;;0.10;0.10;;;22.70;42.00;;;;;;4982832;28;20043;-65
2023/06/13 08:49:08;;;;;;;0.00;0.00;;;22.80;42.00;;;;;;4961881;28;20041;-65
2023/06/13 08:51:36;;;;;;;0.10;0.10;;;22.90;39.80;;;;;;4967511;28;20106;-65
2023/06/13 08:54:04;;;;;;;0.00;0.00;;;22.90;40.80;;;;;;4983254;28;20428;-65
2023/06/13 08:56:40;;;;;;;0.00;0.00;;;23.00;40.20;;;;;;4972977;28;20139;-65
2023/06/13 08:59:13;;;;;;;0.30;0.30;;;23.00;40.70;;;;;;4986135;28;20108;-65
2023/06/13 09:01:39;;;;;;;0.00;0.00;;;23.10;40.90;;;;;;4940105;28;20051;-65
2023/06/13 09:04:08;;;;;;;0.00;0.00;;;23.10;38.80;;;;;;4980979;28;20122;-66
2023/06/13 09:06:34;;;;;;;0.00;0.00;;;23.20;38.90;;;;;;4981813;28;20050;-65
2023/06/13 09:09:01;;;;;;;0.00;0.00;;;23.30;39.20;;;;;;4980797;28;20499;-65
2023/06/13 09:11:28;;;;;;;0.22;0.22;;;23.30;39.50;;;;;;4981969;28;20038;-65
2023/06/13 09:13:58;;;;;;;0.10;0.10;;;23.40;39.80;;;;;;4976945;28;20120;-66
2023/06/13 09:16:24;;;;;;;0.25;0.25;;;23.50;39.00;;;;;;4958040;28;20122;-65
2023/06/13 09:18:50;;;;;;;0.43;0.28;;;23.50;38.90;;;;;;4943830;28;20042;-65
2023/06/13 09:21:17;;;;;;;0.00;0.00;;;23.50;39.90;;;;;;4958666;28;20098;-65
2023/06/13 09:23:43;;;;;;;0.00;0.00;;;23.70;40.10;;;;;;4970070;28;20050;-65
2023/06/13 09:26:09;;;;;;;0.00;0.00;;;23.80;38.90;;;;;;4961224;28;20038;-65
2023/06/13 09:28:40;;;;;;;0.00;0.00;;;23.80;40.10;;;;;;4989784;28;20105;-65
2023/06/13 09:31:07;;;;;;;0.00;0.00;;;23.90;39.80;;;;;;4970835;28;20081;-65
2023/06/13 09:33:34;;;;;;;0.00;0.00;;;23.80;38.70;;;;;;4974068;28;20058;-65
2023/06/13 09:35:59;;;;;;;0.00;0.00;;;23.90;39.40;;;;;;4981264;28;20380;-65
2023/06/13 09:38:25;;;;;;;0.00;0.00;;;23.90;38.80;;;;;;4983852;28;20046;-65
2023/06/13 09:40:53;;;;;;;0.00;0.00;;;23.90;38.40;;;;;;4960396;28;20137;-65
2023/06/13 09:43:19;;;;;;;0.00;0.00;;;23.90;38.50;;;;;;4978514;28;20046;-65
2023/06/13 09:45:47;;;;;;;0.00;0.00;;;24.00;38.70;;;;;;4964612;28;20045;-65
2023/06/13 09:48:12;;;;;;;0.03;0.00;;;24.00;38.00;;;;;;4983187;28;20077;-65
2023/06/13 09:50:40;;;;;;;0.10;0.10;;;24.10;37.80;;;;;;4948182;28;20066;-65
2023/06/13 09:53:07;;;;;;;3.40;0.70;;;24.10;38.90;;;;;;4980543;28;20559;-65
2023/06/13 09:55:33;;;;;;;0.00;0.00;;;24.10;38.80;;;;;;4984519;28;20092;-65
2023/06/13 09:57:59;;;;;;;0.10;0.10;;;24.20;39.20;;;;;;4977299;28;20051;-65
2023/06/13 10:00:24;;;;;;;0.00;0.00;;;24.30;37.60;;;;;;4972331;28;20062;-65
2023/06/13 10:02:50;;;;;;;0.00;0.00;;;24.30;36.80;;;;;;4986568;28;20419;-65
2023/06/13 10:05:16;;;;;;;0.10;0.10;;;24.30;35.60;;;;;;4982932;28;20070;-65
2023/06/13 10:07:41;;;;;;;0.08;0.08;;;24.30;35.30;;;;;;4982203;28;20491;-66
2023/06/13 10:10:07;;;;;;;3.33;1.67;;;24.30;36.60;;;;;;4981857;28;20046;-65
2023/06/13 10:12:38;;;;;;;0.00;0.00;;;24.30;37.80;;;;;;4984416;28;20415;-65
2023/06/13 10:15:06;;;;;;;16.02;1.38;;;24.40;36.80;;;;;;4966143;28;20046;-65
2023/06/13 10:17:35;;;;;;;0.65;0.45;;;24.40;35.80;;;;;;4983491;28;20049;-65
2023/06/13 10:20:05;;;;;;;0.00;0.00;;;24.40;36.30;;;;;;4989842;28;20081;-65
2023/06/13 10:22:31;;;;;;;0.00;0.00;;;24.40;37.10;;;;;;4970701;28;20583;-65
2023/06/13 10:24:57;;;;;;;0.00;0.00;;;24.50;37.10;;;;;;4972914;28;20511;-65
2023/06/13 10:27:24;;;;;;;0.17;0.17;;;24.50;36.90;;;;;;4975687;28;20078;-66
2023/06/13 10:30:06;;;;;;;0.00;0.00;;;24.50;36.00;;;;;;4986703;28;20717;-66
2023/06/13 10:32:40;;;;;;;0.10;0.10;;;24.60;35.90;;;;;;4982916;28;20042;-65
2023/06/13 10:35:30;;;;;;;0.00;0.00;;;24.60;36.40;;;;;;4989725;28;20046;-65
2023/06/13 10:38:21;;;;;;;0.00;0.00;;;24.70;36.70;;;;;;4990157;28;20415;-65
2023/06/13 10:41:20;;;;;;;0.00;0.00;;;24.70;36.40;;;;;;4970654;28;20047;-65
2023/06/13 10:44:09;;;;;;;0.00;0.00;;;24.80;35.90;;;;;;4983033;28;20388;-66
2023/06/13 10:46:36;;;;;;;0.00;0.00;;;24.80;36.20;;;;;;4993079;28;20052;-65
2023/06/13 10:49:02;;;;;;;0.10;0.03;;;24.80;35.10;;;;;;5000665;28;20038;-65
2023/06/13 10:51:30;;;;;;;0.00;0.00;;;24.80;35.50;;;;;;4970110;28;20046;-66
2023/06/13 10:54:02;;;;;;;0.00;0.00;;;24.80;35.20;;;;;;4978223;28;20042;-66
2023/06/13 10:56:32;;;;;;;0.30;0.30;;;24.80;34.90;;;;;;4967539;28;20488;-66
2023/06/13 10:59:04;;;;;;;0.00;0.00;;;24.80;35.00;;;;;;4989692;28;20057;-66
2023/06/13 11:01:31;;;;;;;0.20;0.20;;;24.80;34.10;;;;;;4992931;28;20058;-65
2023/06/13 11:04:14;;;;;;;0.00;0.00;;;24.90;35.50;;;;;;4993708;28;20096;-65
2023/06/13 11:06:46;;;;;;;0.00;0.00;;;24.90;34.80;;;;;;4976114;28;20054;-66
2023/06/13 11:09:23;;;;;;;0.25;0.22;;;25.00;35.90;;;;;;4977099;28;20050;-66
2023/06/13 11:11:53;;;;;;;0.00;0.00;;;24.90;36.10;;;;;;4994635;28;20055;-66
2023/06/13 11:14:32;;;;;;;0.00;0.00;;;25.00;36.60;;;;;;4994849;28;20138;-66
2023/06/13 11:16:58;;;;;;;0.00;0.00;;;24.80;36.80;;;;;;4969879;28;20496;-65
2023/06/13 11:19:26;;;;;;;0.00;0.00;;;24.90;37.00;;;;;;4992333;28;20042;-65
2023/06/13 11:22:10;;;;;;;0.20;0.20;;;24.90;37.60;;;;;;4981802;28;20527;-65
2023/06/13 11:24:36;;;;;;;0.22;0.22;;;25.00;37.50;;;;;;4973984;28;20039;-65
2023/06/13 11:27:13;;;;;;;0.00;0.00;;;25.00;37.00;;;;;;4974662;28;20053;-66
2023/06/13 11:29:39;;;;;;;0.17;0.10;;;25.00;37.70;;;;;;4983346;28;20034;-65
2023/06/13 11:32:08;;;;;;;0.40;0.28;;;25.00;38.40;;;;;;4979876;28;20543;-65
2023/06/13 11:34:56;;;;;;;0.00;0.00;;;25.00;38.90;;;;;;4980009;28;20038;-65
2023/06/13 11:37:44;;;;;;;0.00;0.00;;;25.00;38.90;;;;;;4991951;28;20082;-65
2023/06/13 11:40:21;;;;;;;0.00;0.00;;;24.90;39.30;;;;;;4957195;28;20053;-65
2023/06/13 11:42:49;;;;;;;0.00;0.00;;;24.90;39.20;;;;;;4977508;28;20504;-65
2023/06/13 11:45:15;;;;;;;0.00;0.00;;;25.00;40.20;;;;;;4988926;28;20046;-65
2023/06/13 11:47:43;;;;;;;0.00;0.00;;;25.00;40.20;;;;;;4991914;28;20390;-65
2023/06/13 11:50:09;;;;;;;0.00;0.00;;;25.00;39.00;;;;;;4990189;28;20039;-65
2023/06/13 11:52:34;;;;;;;1.95;0.80;;;25.00;39.80;;;;;;4973613;28;20068;-65
2023/06/13 11:55:01;;;;;;;0.00;0.00;;;25.00;38.80;;;;;;4992325;28;20067;-65
2023/06/13 11:57:46;;;;;;;0.00;0.00;;;25.00;38.30;;;;;;4984863;28;20058;-65
2023/06/13 12:00:12;;;;;;;0.00;0.00;;;25.00;38.30;;;;;;4973243;28;20047;-65
2023/06/13 12:02:38;;;;;;;0.00;0.00;;;25.00;37.60;;;;;;4984132;28;20503;-65
2023/06/13 12:05:05;;;;;;;0.00;0.00;;;25.00;37.00;;;;;;4988728;28;20117;-65
2023/06/13 12:07:33;;;;;;;0.00;0.00;;;25.00;37.10;;;;;;4979546;28;20100;-65
2023/06/13 12:09:59;;;;;;;0.00;0.00;;;25.00;38.00;;;;;;4989462;28;20038;-66
2023/06/13 12:12:24;;;;;;;0.00;0.00;;;25.00;37.30;;;;;;4972063;28;20051;-65
2023/06/13 12:14:54;;;;;;;0.73;0.73;;;25.00;36.40;;;;;;4988318;28;20503;-65
2023/06/13 12:17:21;;;;;;;0.00;0.00;;;25.00;37.40;;;;;;4992247;28;20042;-64
2023/06/13 12:19:46;;;;;;;0.00;0.00;;;25.00;37.60;;;;;;4981819;28;20061;-66
2023/06/13 12:22:13;;;;;;;0.00;0.00;;;25.00;37.60;;;;;;4972770;28;20034;-65
2023/06/13 12:24:39;;;;;;;0.00;0.00;;;25.00;37.40;;;;;;4984066;28;20054;-65
2023/06/13 12:27:05;;;;;;;0.00;0.00;;;25.00;38.10;;;;;;4972601;28;20047;-65
2023/06/13 12:29:33;;;;;;;0.00;0.00;;;25.10;38.20;;;;;;4955263;28;20154;-65
2023/06/13 12:32:03;;;;;;;0.17;0.17;;;25.20;37.60;;;;;;4972673;28;20131;-65
2023/06/13 12:34:34;;;;;;;0.35;0.35;;;25.10;38.10;;;;;;4973502;28;20143;-66
2023/06/13 12:37:02;;;;;;;0.00;0.00;;;25.10;37.70;;;;;;4973305;28;20122;-65
2023/06/13 12:39:30;;;;;;;0.00;0.00;;;25.10;38.30;;;;;;4963378;28;20038;-65
2023/06/13 12:42:00;;;;;;;0.00;0.00;;;25.20;38.50;;;;;;4991123;28;20054;-65
2023/06/13 12:44:29;;;;;;;0.00;0.00;;;25.20;38.30;;;;;;4990463;28;20523;-65
2023/06/13 12:46:58;;;;;;;0.00;0.00;;;25.30;38.10;;;;;;4974067;28;20109;-65
2023/06/13 12:49:24;;;;;;;0.00;0.00;;;25.30;36.90;;;;;;4991706;28;20086;-65
2023/06/13 12:51:52;;;;;;;0.00;0.00;;;25.40;37.70;;;;;;4991560;28;20137;-65